Weather observations for the past three days for
Uvalde, Garner Field Airport
Metric (Imperial)
Date Time (cdt) Wind (kph) Vis. (km) Weather Sky Cond. Temperature (ºC) Relative Humidity Wind Chill (°C) Heat Index (°C) Pressure Precipitation (cm)
Air Dwpt 6 hour altimeter (cm) sea level (mb) 1 hr 3 hr 6 hr
Max. Min.
08 20:15 NE 9 16.09 Mostly Cloudy BKN029 24 20.7 82% 24 75.64 0.0
08 19:55 NE 7 16.09 A Few Clouds FEW028 24.6 20.5 78% 25 75.62 0.0
08 19:35 NE 9 16.09 A Few Clouds FEW032 25.2 20.5 75% 26 75.62 0.0
08 19:15 E 11 16.09 A Few Clouds FEW033 25.5 20.3 73% 27 75.62 0.0
08 18:55 E 9 16.09 Overcast FEW026 OVC034 25.5 20.4 26.2 22.6 73% 27 75.62 0.0
08 18:35 SE 9 16.09 Overcast BKN028 OVC034 25.7 20.3 72% 27 75.62 0.0
08 18:15 SE 11 16.09 Overcast SCT027 OVC034 25.8 20.3 72% 27 75.62 0.0
08 17:55 SE 15 16.09 Mostly Cloudy BKN036 26 20.2 70% 27 75.62 0.0
08 17:35 SE 13 16.09 Overcast FEW024 OVC037 25.9 20.4 72% 27 75.62 0.0
08 17:15 E 13 16.09 Mostly Cloudy SCT022 SCT028 BKN037 25.6 20.5 73% 27 75.64 0.0
08 16:55 SE 13 16.09 Overcast SCT020 BKN026 OVC039 25 20.5 76% 26 75.67 0.0
08 16:35 SE 11 16.09 Overcast SCT019 OVC039 25.1 20.6 76% 26 75.67 0.0
08 16:15 SE 15 16.09 Overcast BKN019 OVC039 24.8 20.4 77% 26 75.69 0.0
08 15:55 E 15 16.09 Overcast OVC018 24.8 20.4 77% 26 75.72 0.0
08 15:35 SE 11 16.09 Overcast BKN018 BKN028 OVC034 24 20.1 79% 24 75.74 0.0
08 15:15 SE 11 16.09 Overcast SCT017 BKN030 OVC035 24.3 20.1 77% 25 75.74 0.0
08 14:55 S 9 16.09 Overcast OVC017 23.3 19.7 80% 75.77 0.0
08 14:35 E 6 16.09 Overcast OVC017 23.2 19.4 79% 75.77 0.0
08 14:15 SE 7 16.09 Overcast OVC017 23 19.3 80% 75.79 0.0
08 13:55 S 6 16.09 Overcast OVC016 22.8 19.3 81% 75.79 0.0
08 13:35 SE 7 16.09 Overcast OVC016 23 19.3 80% 75.82 0.0
08 13:15 Calm 16.09 Overcast OVC013 22.7 19.1 80% 75.82 0.0
08 12:55 Vrbl 7 16.09 Overcast OVC012 22.4 18.9 22.4 17.5 81% 75.84 0.0
08 12:35 Calm 16.09 Overcast OVC010 21.3 18.3 83% 75.87 0.0
08 12:15 NE 13 16.09 Overcast OVC009 20.7 18 85% 75.9 0.0
08 11:55 NE 6 16.09 Overcast OVC008 19.5 17.5 88% 75.95 0.0
08 11:35 E 11 16.09 Overcast OVC008 19.2 17.2 88% 75.97 0.0
08 11:15 E 9 16.09 Overcast OVC007 18.9 17 89% 75.97 0.0
08 10:55 E 15 16.09 Overcast OVC007 18.6 16.8 89% 76 0.0
08 10:35 E 13 16.09 Overcast OVC008 18.2 16.6 90% 76 0.0
08 10:15 NE 15 14.48 Overcast OVC009 18.2 16.4 89% 76 0.0
08 09:55 NE 9 14.48 Overcast OVC011 18.1 16.1 88% 76.05 0.0
08 09:35 NE 6 14.48 Overcast OVC012 17.9 15.8 88% 76.05 0.0
08 09:15 NE 13 14.48 Overcast OVC012 18 15.8 87% 76.05 0.0
08 08:55 E 7 14.48 Overcast OVC013 17.8 15.7 88% 76.02 0.0
08 08:35 E 6 12.87 Overcast OVC013 17.8 15.7 88% 76.05 0.0
08 08:15 E 11 14.48 Light Rain OVC014 17.7 15.7 88% 76.05 0.0
08 07:55 E 7 14.48 Overcast OVC014 17.7 15.7 88% 76.02 0.0
08 07:35 NE 7 14.48 Overcast OVC013 17.5 15.7 89% 76.02 0.0
08 07:15 NE 9 14.48 Overcast OVC012 17.5 15.6 89% 76 0.0
08 06:55 NE 13 16.09 Overcast OVC012 17.7 15.5 19.2 17.6 87% 75.97 0.0
08 06:35 E 11 14.48 Light Rain OVC013 17.8 15.6 87% 76 0.0
08 06:15 E 9 16.09 Overcast OVC013 18 15.2 84% 76.02 0.0
08 05:55 E 6 16.09 Overcast OVC013 18.1 15.1 83% 76.02 0.0
08 05:35 E 6 16.09 Overcast OVC013 18.2 15.3 83% 76.02 0.0
08 05:15 E 9 16.09 Overcast OVC015 18.4 14.8 80% 76.02 0.0
08 04:55 Calm 16.09 Overcast OVC014 18.1 14.8 81% 76 0.0
08 04:35 NE 7 16.09 Overcast OVC018 18 14.9 82% 76.02 0.0
08 04:15 Calm 12.87 Light Rain OVC019 18.2 15.1 82% 76.05 0.0
08 03:55 E 6 14.48 Light Rain OVC016 18.6 14.7 78% 76.02 0.0
08 03:35 E 6 16.09 Overcast OVC018 18.7 14.5 77% 76.05 0.0
08 03:15 E 6 14.48 Light Rain OVC019 18.8 14.4 76% 76.05 0.0
08 02:55 E 9 16.09 Overcast OVC018 19.1 14.2 73% 76.05 0.0
08 02:35 SE 13 16.09 Overcast OVC020 19.1 14.9 77% 76.05 0.0
08 02:15 E 6 16.09 Overcast OVC019 18.9 14.3 75% 76.1 0.0
08 01:55 E 7 16.09 Overcast OVC019 19 14.1 73% 76.1 0.0
08 01:35 E 9 16.09 Overcast OVC020 19.1 14.1 73% 76.1 0.0
08 01:15 NE 9 16.09 Overcast OVC020 18.9 14.4 75% 76.1 0.0
08 00:55 NE 13 16.09 Overcast OVC022 19 14.4 20.4 18.9 75% 76.1 0.0
08 00:35 NE 9 16.09 Overcast OVC023 18.9 14.4 75% 76.1 0.0
08 00:15 NE 11 16.09 Overcast OVC022 19 14.3 74% 76.1 0.0
07 23:55 E 17 16.09 Overcast OVC020 18.9 14.9 78% 76.02 0.0
07 23:35 NE 9 16.09 Overcast OVC024 19 15.4 80% 76.15 0.0
07 23:15 Calm 16.09 Overcast OVC025 19 15.2 79% 76.2 0.0
07 22:55 Calm 16.09 Overcast OVC024 19.1 14.9 77% 76.15 0.0
07 22:35 N 7 16.09 Overcast OVC024 19.1 14.8 76% 76.12 0.0
07 22:15 NE 7 16.09 Overcast OVC024 19 14.9 77% 76.1 0.0
07 21:55 NE 7 16.09 Overcast OVC025 19 14.9 77% 76.07 0.0
07 21:35 N 9 16.09 Overcast OVC026 19.2 15 77% 76.1 0.0
07 21:15 NE 7 16.09 Overcast OVC027 19.5 16.1 81% 76.05 0.0
07 20:55 Calm 16.09 Overcast OVC028 19.8 15.2 75% 76.07 0.0
07 20:35 Calm 16.09 Overcast OVC028 20.2 15 72% 76.07 0.0
07 20:15 Calm 12.87 Overcast OVC028 20.2 15.1 73% 76.1 0.0
07 19:55 Calm 14.48 Overcast OVC027 20.3 14.2 68% 76.1 0.0
07 19:35 N 6 16.09 Overcast OVC024 20.3 14.1 68% 76.07 0.0
07 19:15 NE 9 16.09 Overcast OVC023 20.2 14.2 69% 76.02 0.0
07 18:55 N 9 16.09 Mostly Cloudy BKN022 BKN190 20 14.2 20.6 18.1 69% 76.02 0.0
07 18:35 NE 7 16.09 Partly Cloudy SCT200 20 14.1 69% 75.97 0.0
07 18:15 E 20 16.09 Mostly Cloudy FEW022 BKN190 19.9 14.1 69% 75.95 0.0
07 17:55 E 19 16.09 A Few Clouds FEW022 20.1 14.3 69% 76.02 0.0
07 17:35 E 17 16.09 Mostly Cloudy BKN022 19.8 14.3 71% 76.05 0.0
07 17:15 E 13 16.09 Overcast OVC022 20 14.5 71% 76.1 0.0
07 16:55 NE 13 16.09 Overcast OVC023 20 14.2 69% 76.15 0.0
07 16:35 E 13 16.09 Overcast OVC022 20.1 14.5 70% 76.15 0.0
07 16:15 NE 20 16.09 Overcast OVC023 20.3 14.7 70% 76.15 0.0
07 15:55 E 15 16.09 Mostly Cloudy BKN022 19.6 14.2 71% 76.17 0.0
07 15:35 NE 13 14.48 Overcast OVC023 19.3 14.2 72% 76.23 0.0
07 15:15 N 17 14.48 Overcast OVC021 19 14.2 74% 76.25 0.0
07 14:55 NE 11 16.09 Overcast OVC021 18.9 14.2 74% 76.23 0.0
07 14:35 N 11 16.09 Overcast OVC022 18.6 13.9 74% 76.25 0.0
07 14:15 NE 11 16.09 Overcast OVC021 19 14 73% 76.25 0.0
07 13:55 E 11 14.48 Overcast OVC021 18.8 14.3 75% 76.28 0.0
07 13:35 NE 13 14.48 Overcast OVC020 18.5 14.2 76% 76.25 0.0
07 13:15 NE 15 12.87 Light Rain OVC019 18.2 14.1 77% 76.28 0.0
07 12:55 NE 13 14.48 Overcast OVC017 18.5 14.4 19.5 17.5 77% 76.28 0.0
07 12:35 E 19 16.09 Overcast OVC016 19.1 14.6 75% 76.23 0.0
07 12:15 E 22 14.48 Overcast OVC014 18.1 14.6 80% 76.25 0.0
07 11:55 E 17 14.48 Overcast OVC013 17.8 14.8 83% 76.3 0.0
07 11:35 NE 19 14.48 Overcast OVC013 17.7 14.7 83% 76.3 0.0
07 11:15 NE 20 14.48 Overcast OVC013 17.6 14.8 84% 76.25 0.0
07 10:55 NE 22 12.87 Overcast OVC014 17.8 14.9 83% 76.25 0.0
07 10:35 NE 20 14.48 Overcast OVC015 17.9 14.7 82% 76.25 0.0
07 10:15 NE 22 12.87 Overcast OVC015 18.5 15.1 81% 76.23 0.0
07 09:55 NE 15 14.48 Overcast OVC014 18.7 15.2 80% 76.2 0.0
07 09:35 NE 20 14.48 Overcast OVC013 18.6 15.1 80% 76.15 0.0
07 09:15 NE 17 14.48 Overcast OVC013 19.1 15.7 81% 76.2 0.0
07 08:55 E 15 14.48 Overcast OVC014 19.2 15.7 80% 76.2 0.0
07 08:35 NE 17 14.48 Overcast OVC014 19.4 15.7 79% 76.2 0.0
07 08:15 NE 15 14.48 Overcast OVC013 19.3 15.8 80% 76.2 0.0
07 07:55 NE 20 14.48 Overcast OVC013 19.3 15.8 80% 76.07 0.0
07 07:35 E 19 14.48 Overcast OVC014 19.3 16 81% 76.07 0.0
07 07:15 E 17 14.48 Overcast OVC015 19.4 16 81% 76.15 0.0
07 06:55 E 11 16.09 Overcast OVC014 19.4 15.9 19.4 18.8 80% 76.12 0.0
07 06:35 E 15 16.09 Overcast OVC014 19.4 15.9 80% 76.1 0.0
07 06:15 E 11 16.09 Overcast OVC013 19.4 15.9 80% 76.07 0.0
07 05:55 NE 13 16.09 Overcast OVC013 19.3 15.8 80% 76.05 0.0
07 05:35 NE 17 16.09 Overcast OVC015 19.3 15.6 79% 76.05 0.0
07 05:15 NE 19 16.09 Overcast OVC016 19.2 15.8 81% 76.05 0.0
07 04:55 NE 17 16.09 Overcast OVC014 19.1 16 82% 76.02 0.0
07 04:35 NE 20 16.09 Overcast OVC014 19 15.9 82% 76.02 0.0
07 04:15 NE 17 16.09 Overcast OVC015 19 16 83% 76.05 0.0
07 03:55 NE 15 16.09 Overcast OVC016 19 16 83% 76.02 0.0
07 03:35 NE 11 16.09 Overcast OVC017 19 15.9 82% 76.05 0.0
07 03:15 NE 15 16.09 Overcast OVC017 19 15.8 82% 76.07 0.0
07 02:55 E 15 16.09 Overcast OVC019 19 15.7 81% 76.1 0.0
07 02:35 E 19 16.09 Overcast OVC019 19.1 15.8 81% 76.12 0.0
07 02:15 E 15 16.09 Overcast OVC019 19.1 15.8 81% 76.12 0.0
07 01:55 E 15 16.09 Overcast OVC019 19.1 15.9 82% 76.1 0.0
07 01:35 E 13 16.09 Mostly Cloudy BKN021 BKN210 19 15.9 82% 76.12 0.0
07 01:15 E 11 16.09 Partly Cloudy SCT210 18.9 16.2 84% 76.1 0.0
07 00:55 E 6 16.09 Fair CLR 19.1 16.7 27.6 19 86% 76.07 0.0
07 00:35 E 9 16.09 A Few Clouds FEW210 19.1 16.5 85% 76.05 0.0
07 00:15 E 7 16.09 Mostly Cloudy BKN210 19.6 16.3 81% 76.02 0.0
06 23:55 NE 17 16.09 Mostly Cloudy BKN200 19.8 16.4 81% 75.97 0.0
06 23:35 NE 19 16.09 Mostly Cloudy BKN200 19.9 16.7 82% 75.95 0.0
06 23:15 E 15 16.09 Mostly Cloudy BKN200 20.1 16.7 81% 75.95 0.0
06 22:55 NE 15 16.09 Partly Cloudy SCT200 20.3 16.7 80% 75.95 0.0
06 22:35 NE 17 16.09 Partly Cloudy SCT230 20.4 16.8 80% 75.92 0.0
06 22:15 NE 20 16.09 Mostly Cloudy BKN230 20.7 16.9 79% 75.9 0.0
06 21:55 NE 19 16.09 Mostly Cloudy BKN220 21.1 17 78% 75.87 0.0
06 21:35 NE 19 16.09 Mostly Cloudy BKN220 21.5 17.3 77% 75.9 0.0
06 21:15 NE 19 16.09 Mostly Cloudy BKN230 22 17.8 77% 75.87 0.0
06 20:55 NE 19 16.09 Mostly Cloudy BKN240 22.7 18.2 76% 75.84 0.0
06 20:35 NE 19 16.09 Mostly Cloudy BKN250 23.3 18.5 75% 75.82 0.0
06 20:15 NE 19 16.09 A Few Clouds FEW240 23.9 19 74% 25 75.79 0.0
06 19:55 NE 19 14.48 Partly Cloudy SCT240 25.4 20.4 74% 27 75.74 0.0
06 19:35 NE 20 14.48 A Few Clouds FEW250 26.4 21.2 73% 28 75.74 0.0
06 19:15 N 20 14.48 A Few Clouds FEW240 27.2 21.6 72% 29 75.74 0.0
06 18:55 NE 15 14.48 A Few Clouds FEW220 27.9 21.6 30.3 25.7 69% 30 75.72 0.0
06 18:35 N 17 16.09 Partly Cloudy SCT220 28.3 22 69% 31 75.69 0.0
06 18:15 N 15 14.48 Partly Cloudy SCT230 28.6 22 68% 31 75.67 0.0
06 17:55 NE 11 14.48 Mostly Cloudy SCT034 BKN047 BKN240 29.1 22.3 67% 32 75.64 0.0
06 17:35 NE 15 14.48 Mostly Cloudy SCT033 BKN042 29.2 22.3 66% 32 75.67 0.0
06 17:15 NE 11 16.09 Partly Cloudy SCT037 SCT043 30.2 22.4 63% 34 75.64 0.0
06 16:55 E 11 16.09 A Few Clouds FEW031 29.7 22.4 65% 33 75.67 0.0
06 16:35 E 11 16.09 Partly Cloudy SCT029 29.9 22.6 65% 34 75.67 0.0
06 16:15 NE 13 16.09 Partly Cloudy SCT028 29.9 22.8 66% 34 75.67 0.0
06 15:55 NE 15 16.09 A Few Clouds FEW027 29.2 22.8 68% 33 75.69 0.0
06 15:35 NE 13 16.09 Fair CLR 28.9 22.9 70% 33 75.72 0.0
06 15:15 E 15 16.09 Mostly Cloudy SCT020 BKN034 28.4 22.8 72% 32 75.74 0.0
06 14:55 NE 13 16.09 Overcast SCT020 BKN029 OVC038 27.2 23 78% 30 75.77 0.0
06 14:35 NE 17 16.09 Overcast BKN019 OVC028 26.7 22.9 80% 29 75.77 0.0
06 14:15 NE 17 16.09 Overcast OVC018 25.7 22.6 83% 27 75.79 0.0
06 13:55 NE 13 16.09 Overcast FEW017 OVC027 26.7 23 80% 29 75.79 0.0
06 13:35 E 13 16.09 Overcast OVC027 26.6 22.9 80% 29 75.82 0.0
06 13:15 NE 13 16.09 Mostly Cloudy FEW015 SCT028 BKN038 26.2 22.8 82% 28 75.82 0.0
06 12:55 E 15 16.09 Overcast FEW013 OVC039 27.2 23.5 27.3 23.8 80% 30 75.82 0.0
06 12:35 E 17 14.48 Overcast OVC038 26.6 23.3 82% 29 75.84 0.0
06 12:15 E 15 16.09 Overcast FEW026 OVC033 26.8 22.9 79% 29 75.82 0.0
06 11:55 NE 13 14.48 Overcast OVC029 26.5 22.9 81% 29 75.82 0.0
06 11:35 NE 13 12.87 Overcast OVC028 26.1 23 83% 28 75.79 0.0
06 11:15 NE 9 14.48 Overcast OVC027 25.9 23.1 85% 28 75.79 0.0
06 10:55 NE 9 16.09 Overcast FEW012 OVC024 25.9 23.1 85% 28 75.77 0.0
06 10:35 E 9 16.09 Overcast SCT012 OVC025 25.7 23 85% 27 75.74 0.0
06 10:15 NE 6 14.48 Overcast FEW011 OVC025 25.7 23 85% 27 75.74 0.0
06 09:55 Calm 12.87 Overcast FEW009 OVC023 25.2 23.1 88% 26 75.74 0.0
06 09:35 NE 6 11.27 Overcast SCT010 OVC022 25.1 23.1 89% 26 75.72 0.0
06 09:15 Calm 12.87 Overcast BKN010 OVC019 24.6 23 91% 25 75.72 0.0
06 08:55 SE 7 12.87 Overcast OVC009 24.4 22.9 91% 24 75.67 0.0
06 08:35 SE 6 12.87 Overcast BKN010 OVC020 24.4 23 92% 24 75.67 0.0
06 08:15 SE 6 11.27 Overcast BKN011 OVC021 24.2 22.8 92% 24 75.64 0.0
06 07:55 Calm 11.27 Overcast BKN011 OVC020 24 22.8 93% 23 75.64 0.0
06 07:35 Calm 9.66 Fog/Mist BKN011 OVC020 23.9 22.7 93% 23 75.62 0.0
06 07:15 E 6 11.27 Light Rain BKN011 OVC020 23.9 22.7 93% 23 75.62 0.0
06 06:55 E 6 11.27 Overcast BKN011 OVC018 23.8 22.7 24.9 23.8 94% 75.62 0.0
06 06:35 Calm 12.87 Overcast SCT013 OVC017 23.8 22.6 93% 75.62 0.0
06 06:15 SE 9 14.48 Overcast OVC015 23.9 22.6 92% 23 75.59 0.0
06 05:55 SE 17 14.48 Overcast OVC010 24 22.6 92% 23 75.62 0.0
06 05:35 SE 11 12.87 Overcast OVC010 24 22.8 93% 23 75.62 0.0
06 05:15 SE 13 14.48 Overcast OVC011 24.2 22.7 91% 24 75.59 0.0
06 04:55 SE 11 16.09 Overcast OVC012 24.4 22.8 91% 24 75.59 0.0
06 04:35 SE 15 14.48 Overcast OVC012 24.4 22.8 91% 24 75.59 0.0
06 04:15 SE 15 14.48 Overcast OVC013 24.5 22.8 90% 25 75.59 0.0
06 03:55 SE 11 14.48 Overcast OVC012 24.6 22.8 90% 25 75.59 0.0
06 03:35 E 13 14.48 Overcast OVC012 24.7 22.9 90% 25 75.59 0.0
06 03:15 E 13 14.48 Overcast OVC012 24.8 22.8 89% 25 75.57 0.0
06 02:55 E 13 14.48 Overcast OVC013 24.8 22.9 89% 25 75.59 0.0
06 02:35 E 19 14.48 Overcast OVC013 24.9 23 89% 25 75.59 0.0
06 02:15 E 17 14.48 Overcast OVC013 24.6 23 91% 25 75.59 0.0
06 01:55 E 13 14.48 Partly Cloudy SCT015 24.4 22.9 91% 24 75.59 0.0
06 01:35 E 15 14.48 Partly Cloudy SCT016 24.5 22.8 90% 25 75.57 0.0
06 01:15 E 15 14.48 Fair CLR 24.6 22.8 90% 25 75.59 0.0
06 00:55 E 13 16.09 Fair CLR 24.9 22.9 31.1 24.9 89% 25 75.59 0.0
06 00:35 E 17 14.48 Fair CLR 25.1 23 88% 26 75.59 0.0
06 00:15 E 15 16.09 Fair CLR 25.5 23.1 87% 27 75.59 0.0
05 23:55 E 17 G 30 16.09 Fair CLR 25.9 23.1 85% 28 75.57 0.0
05 23:35 E 15 16.09 Fair CLR 26.1 23 83% 28 75.57 0.0
05 23:15 E 17 14.48 Fair CLR 26.3 22.8 81% 28 75.57 0.0
05 22:55 E 13 16.09 Fair CLR 26.7 22.6 78% 29 75.54 0.0
05 22:35 E 17 16.09 Fair CLR 26.9 22.4 76% 29 75.51 0.0
05 22:15 E 13 16.09 Fair CLR 27 22.4 76% 29 75.49 0.0
05 21:55 E 11 16.09 Fair CLR 26.7 22.5 78% 29 75.46 0.0
05 21:35 E 13 16.09 Fair CLR 26.9 22.6 77% 29 75.46 0.0
05 21:15 E 13 16.09 Fair CLR 27 22.6 77% 29 75.46 0.0
05 20:55 NE 11 16.09 Fair CLR 27.6 22.6 74% 30 75.44 0.0
05 20:35 NE 11 16.09 Fair CLR 27.9 22.6 73% 31 75.41 0.0
Date Time (cdt) Wind (kph) Vis. (km) Weather Sky Cond. Air Dwpt Max. Min. Relative Humidity Wind Chill (°C) Heat Index (°C) altimeter (cm) sea level (mb) 1 hr 3 hr 6 hr
6 hour
Temperature (ºC) Pressure Precipitation (cm)